Time;durP1;ratioP1;P1;durP2;ratioP2;P2;SDS_P1;SDS_P2;PMS_P1;PMS_P2;Temp;Humidity;BMP_temperature;BMP_pressure;BME280_temperature;BME280_humidity;BME280_pressure;Samples;Min_cycle;Max_cycle;Signal;HPM_P1;HPM_P2
2021/05/15 00:02:47;;;;;;;2.20;1.73;;;15.80;95.00;;;;;;6286674;28;20468;-66
2021/05/15 00:05:49;;;;;;;1.53;1.20;;;15.70;94.90;;;;;;6294328;28;20480;-66
2021/05/15 00:08:50;;;;;;;1.90;1.80;;;15.50;94.90;;;;;;6296477;28;21021;-65
2021/05/15 00:11:53;;;;;;;1.47;1.20;;;15.50;94.90;;;;;;6297932;28;20481;-65
2021/05/15 00:14:54;;;;;;;0.97;0.93;;;15.40;95.10;;;;;;6299152;28;20488;-65
2021/05/15 00:17:56;;;;;;;1.20;1.10;;;15.40;95.00;;;;;;6297713;28;20552;-64
2021/05/15 00:20:57;;;;;;;1.77;1.23;;;15.50;95.10;;;;;;6298205;28;20530;-64
2021/05/15 00:23:59;;;;;;;1.23;1.13;;;15.50;94.90;;;;;;6297659;28;20556;-64
2021/05/15 00:27:01;;;;;;;1.80;1.47;;;15.60;94.90;;;;;;6298052;28;20537;-65
2021/05/15 00:30:04;;;;;;;1.63;1.13;;;15.60;94.80;;;;;;6298229;28;21083;-65
2021/05/15 00:33:06;;;;;;;1.27;0.80;;;15.70;94.80;;;;;;6299090;28;20483;-65
2021/05/15 00:36:08;;;;;;;3.00;1.20;;;15.70;94.70;;;;;;6298901;28;20475;-65
2021/05/15 00:39:10;;;;;;;1.83;1.20;;;15.60;94.80;;;;;;6299070;28;20469;-65
2021/05/15 00:42:12;;;;;;;1.60;1.00;;;15.50;94.80;;;;;;6302190;28;20526;-64
2021/05/15 00:45:15;;;;;;;0.80;0.80;;;15.30;95.20;;;;;;6303605;28;20571;-64
2021/05/15 00:48:17;;;;;;;1.90;1.00;;;15.20;95.50;;;;;;6304334;28;20479;-64
2021/05/15 00:51:19;;;;;;;0.90;0.80;;;15.10;95.70;;;;;;6303708;28;20515;-64
2021/05/15 00:54:21;;;;;;;2.77;1.33;;;15.00;96.10;;;;;;6304032;28;20460;-64
2021/05/15 00:57:23;;;;;;;1.73;1.37;;;14.90;96.30;;;;;;6303547;28;21060;-65
2021/05/15 01:00:25;;;;;;;1.03;0.93;;;14.90;96.30;;;;;;6303643;28;20465;-64
2021/05/15 01:03:27;;;;;;;1.10;1.00;;;15.00;96.40;;;;;;6303653;28;20552;-64
2021/05/15 01:06:28;;;;;;;1.37;1.20;;;15.10;96.30;;;;;;6294133;28;20512;-64
2021/05/15 01:09:30;;;;;;;1.67;1.20;;;15.20;96.30;;;;;;6303514;28;20507;-64
2021/05/15 01:12:33;;;;;;;2.37;1.17;;;15.20;96.30;;;;;;6303056;28;20793;-64
2021/05/15 01:15:36;;;;;;;2.30;1.00;;;15.30;96.20;;;;;;6303439;28;20493;-64
2021/05/15 01:18:38;;;;;;;2.57;1.10;;;15.30;96.10;;;;;;6303004;28;20516;-64
2021/05/15 01:21:40;;;;;;;1.13;1.03;;;15.30;96.10;;;;;;6302437;28;20511;-63
2021/05/15 01:24:43;;;;;;;1.60;1.20;;;15.20;96.10;;;;;;6302844;28;20457;-63
2021/05/15 01:27:45;;;;;;;1.20;1.10;;;15.30;96.30;;;;;;6303067;28;20491;-64
2021/05/15 01:30:46;;;;;;;1.20;1.10;;;15.30;96.10;;;;;;6302891;28;20540;-64
2021/05/15 01:33:48;;;;;;;1.57;1.30;;;15.20;96.30;;;;;;6303386;28;20435;-63
2021/05/15 01:36:51;;;;;;;2.53;1.20;;;15.10;96.70;;;;;;6303196;28;20916;-64
2021/05/15 01:39:55;;;;;;;1.80;1.10;;;15.00;96.90;;;;;;6302876;28;20535;-64
2021/05/15 01:42:56;;;;;;;2.33;1.20;;;15.10;96.60;;;;;;6302821;28;20465;-65
2021/05/15 01:45:58;;;;;;;1.63;1.20;;;15.20;96.70;;;;;;6302568;28;20563;-65
2021/05/15 01:48:59;;;;;;;1.63;1.20;;;15.20;96.70;;;;;;6302676;28;20461;-65
2021/05/15 01:52:02;;;;;;;1.43;1.20;;;15.00;96.70;;;;;;6301372;28;20544;-64
2021/05/15 01:55:12;;;;;;;1.47;1.20;;;15.00;96.90;;;;;;6301765;28;20463;-64
2021/05/15 01:58:13;;;;;;;1.40;1.30;;;15.00;97.10;;;;;;6301908;28;20492;-64
2021/05/15 02:01:15;;;;;;;0.87;0.87;;;15.10;97.10;;;;;;6301721;28;20556;-64
2021/05/15 02:04:16;;;;;;;1.83;1.23;;;15.00;97.00;;;;;;6302219;28;20935;-64
2021/05/15 02:07:19;;;;;;;1.53;1.00;;;15.10;96.90;;;;;;6297409;28;20469;-64
2021/05/15 02:10:20;;;;;;;1.47;1.20;;;15.00;96.80;;;;;;6302239;28;20811;-64
2021/05/15 02:13:22;;;;;;;1.40;1.30;;;15.10;96.90;;;;;;6301687;28;20485;-64
2021/05/15 02:16:24;;;;;;;1.23;1.13;;;15.10;96.80;;;;;;6302143;28;20556;-64
2021/05/15 02:19:25;;;;;;;1.30;1.20;;;15.10;96.90;;;;;;6301880;28;20472;-64
2021/05/15 02:22:27;;;;;;;1.40;1.30;;;15.10;96.70;;;;;;6301725;28;21034;-65
2021/05/15 02:25:30;;;;;;;1.73;0.90;;;15.10;96.30;;;;;;6300809;28;20484;-64
2021/05/15 02:28:31;;;;;;;1.10;1.10;;;15.30;96.50;;;;;;6300994;28;20493;-64
2021/05/15 02:31:33;;;;;;;1.70;1.60;;;15.30;96.40;;;;;;6300860;28;20500;-64
2021/05/15 02:34:34;;;;;;;1.87;1.20;;;15.30;96.40;;;;;;6301776;28;20487;-64
2021/05/15 02:37:37;;;;;;;2.40;1.23;;;15.30;96.40;;;;;;6301619;28;21028;-64
2021/05/15 02:40:39;;;;;;;1.50;1.30;;;15.30;96.30;;;;;;6301331;28;20473;-64
2021/05/15 02:43:40;;;;;;;1.63;1.00;;;15.30;96.40;;;;;;6301601;28;20551;-64
2021/05/15 02:46:42;;;;;;;1.30;1.20;;;15.30;96.50;;;;;;6300931;28;20458;-65
2021/05/15 02:49:43;;;;;;;1.23;1.13;;;15.30;96.60;;;;;;6301412;28;20551;-64
2021/05/15 02:52:45;;;;;;;1.40;1.30;;;15.30;96.60;;;;;;6301247;28;20547;-64
2021/05/15 02:55:47;;;;;;;1.73;1.03;;;15.30;96.70;;;;;;6301367;28;20468;-64
2021/05/15 02:58:49;;;;;;;1.10;1.00;;;15.20;96.70;;;;;;6300903;28;20500;-65
2021/05/15 03:01:50;;;;;;;2.23;1.20;;;15.30;96.80;;;;;;6300993;28;20560;-65
2021/05/15 03:04:52;;;;;;;1.10;1.10;;;15.30;96.80;;;;;;6300430;28;20465;-65
2021/05/15 03:07:54;;;;;;;1.63;1.10;;;15.30;96.90;;;;;;6301123;28;20602;-65
2021/05/15 03:10:56;;;;;;;1.20;1.10;;;15.30;96.90;;;;;;6300716;28;20578;-61
2021/05/15 03:13:57;;;;;;;1.93;1.07;;;15.30;96.80;;;;;;6286110;28;20575;-61
2021/05/15 03:16:59;;;;;;;2.00;1.10;;;15.30;96.90;;;;;;6300515;28;20512;-61
2021/05/15 03:20:00;;;;;;;3.40;1.30;;;15.30;96.90;;;;;;6300055;28;20473;-61
2021/05/15 03:23:03;;;;;;;1.20;1.10;;;15.20;97.00;;;;;;6300478;28;20496;-61
2021/05/15 03:26:04;;;;;;;2.60;1.30;;;15.20;97.00;;;;;;6300102;28;20487;-61
2021/05/15 03:29:06;;;;;;;2.50;1.10;;;15.20;97.00;;;;;;6300128;28;20523;-61
2021/05/15 03:32:07;;;;;;;1.70;1.10;;;15.20;97.10;;;;;;6300200;28;20488;-61
2021/05/15 03:35:11;;;;;;;1.33;1.23;;;15.20;97.00;;;;;;6300354;28;20565;-61
2021/05/15 03:38:13;;;;;;;1.10;1.00;;;15.20;97.10;;;;;;6300261;28;20607;-61
2021/05/15 03:41:15;;;;;;;1.33;1.23;;;15.20;97.10;;;;;;6299987;28;20469;-61
2021/05/15 03:44:17;;;;;;;1.67;1.40;;;15.20;97.20;;;;;;6300207;28;20549;-61
2021/05/15 03:47:19;;;;;;;1.47;1.37;;;15.20;97.30;;;;;;6299885;28;20469;-61
2021/05/15 03:50:22;;;;;;;1.30;1.20;;;15.20;97.30;;;;;;6299964;28;20472;-61
2021/05/15 03:53:24;;;;;;;1.40;1.30;;;15.20;97.30;;;;;;6299519;28;20556;-61
2021/05/15 03:56:26;;;;;;;0.90;0.90;;;15.20;97.20;;;;;;6300011;28;20465;-61
2021/05/15 03:59:27;;;;;;;0.83;0.83;;;15.20;97.30;;;;;;6299583;28;20948;-61
2021/05/15 04:02:29;;;;;;;1.47;1.10;;;15.20;97.20;;;;;;6299776;28;20468;-61
2021/05/15 04:05:31;;;;;;;2.50;1.23;;;15.20;97.10;;;;;;6299193;28;20477;-61
2021/05/15 04:08:33;;;;;;;1.97;1.10;;;15.20;97.20;;;;;;6299856;28;20802;-61
2021/05/15 04:11:36;;;;;;;1.17;0.97;;;15.30;97.20;;;;;;6299170;28;20939;-62
2021/05/15 04:14:43;;;;;;;1.20;1.10;;;15.20;97.00;;;;;;6299640;28;20465;-61
2021/05/15 04:17:45;;;;;;;1.10;1.00;;;15.20;97.20;;;;;;6289182;28;20473;-61
2021/05/15 04:20:47;;;;;;;1.27;1.17;;;15.10;97.30;;;;;;6298950;28;20491;-61
2021/05/15 04:23:49;;;;;;;1.73;1.13;;;15.10;97.40;;;;;;6299208;28;20804;-62
2021/05/15 04:26:52;;;;;;;2.20;1.23;;;15.10;97.60;;;;;;6299010;28;20504;-61
2021/05/15 04:29:55;;;;;;;1.10;1.00;;;15.10;97.60;;;;;;6299076;28;20473;-62
2021/05/15 04:32:56;;;;;;;1.13;1.10;;;15.10;97.70;;;;;;6298735;28;20783;-61
2021/05/15 04:35:57;;;;;;;2.00;1.80;;;15.20;97.70;;;;;;6299338;28;20843;-61
2021/05/15 04:39:00;;;;;;;1.67;1.50;;;15.30;97.80;;;;;;6298858;28;20500;-61
2021/05/15 04:42:02;;;;;;;1.30;1.20;;;15.30;97.80;;;;;;6299078;28;20501;-61
2021/05/15 04:45:04;;;;;;;1.87;1.27;;;15.40;97.80;;;;;;6298502;28;20476;-61
2021/05/15 04:48:06;;;;;;;1.87;1.67;;;15.40;97.70;;;;;;6299232;28;20662;-61
2021/05/15 04:51:08;;;;;;;1.77;1.57;;;15.50;97.80;;;;;;6299088;28;20476;-61
2021/05/15 04:54:10;;;;;;;1.27;1.17;;;15.50;97.50;;;;;;6298727;28;20552;-61
2021/05/15 04:57:12;;;;;;;1.47;1.37;;;15.50;97.50;;;;;;6298958;28;20530;-61
2021/05/15 05:00:15;;;;;;;1.53;1.43;;;15.60;97.30;;;;;;6298462;28;20465;-61
2021/05/15 05:03:17;;;;;;;1.90;1.70;;;15.60;97.10;;;;;;6298690;28;20904;-61
2021/05/15 05:06:19;;;;;;;2.33;2.10;;;15.60;96.80;;;;;;6298482;28;20468;-61
2021/05/15 05:09:21;;;;;;;2.40;1.97;;;15.60;96.70;;;;;;6298680;28;20498;-61
2021/05/15 05:12:23;;;;;;;2.10;1.87;;;15.60;96.60;;;;;;6298313;28;20500;-61
2021/05/15 05:15:24;;;;;;;1.93;1.70;;;15.70;96.70;;;;;;6298688;28;20467;-61
2021/05/15 05:18:26;;;;;;;4.00;1.80;;;15.70;96.70;;;;;;6298552;28;20543;-61
2021/05/15 05:21:27;;;;;;;1.93;1.73;;;15.70;96.40;;;;;;6293453;28;20549;-61
2021/05/15 05:24:30;;;;;;;2.03;1.70;;;15.70;96.10;;;;;;6298696;28;20469;-61
2021/05/15 05:27:31;;;;;;;1.43;1.33;;;15.70;96.30;;;;;;6299857;28;20919;-61
2021/05/15 05:30:33;;;;;;;1.83;1.73;;;15.80;96.30;;;;;;6303073;28;20477;-61
2021/05/15 05:33:37;;;;;;;2.10;1.60;;;15.90;96.30;;;;;;6302759;28;20468;-61
2021/05/15 05:36:39;;;;;;;3.87;2.77;;;15.90;96.10;;;;;;6303143;28;20480;-61
2021/05/15 05:39:41;;;;;;;2.60;1.50;;;16.00;96.00;;;;;;6302433;28;20556;-61
2021/05/15 05:42:43;;;;;;;4.80;2.53;;;16.10;95.90;;;;;;6302876;28;20429;-61
2021/05/15 05:45:45;;;;;;;2.30;1.60;;;16.30;95.30;;;;;;6302538;28;20477;-61
2021/05/15 05:48:47;;;;;;;1.73;1.63;;;16.30;95.30;;;;;;6303033;28;20480;-61
2021/05/15 05:51:49;;;;;;;2.47;1.90;;;16.30;95.10;;;;;;6302578;28;20449;-62
2021/05/15 05:54:51;;;;;;;1.93;1.77;;;16.30;95.20;;;;;;6302389;28;20429;-62
2021/05/15 05:57:53;;;;;;;1.80;1.70;;;16.30;95.30;;;;;;6302986;28;20421;-62
2021/05/15 06:00:54;;;;;;;2.00;1.60;;;16.20;95.20;;;;;;6302015;28;20453;-61
2021/05/15 06:03:56;;;;;;;1.73;1.63;;;16.20;95.20;;;;;;6302505;28;20434;-61
2021/05/15 06:06:57;;;;;;;1.83;1.67;;;16.30;95.30;;;;;;6302381;28;20535;-62
2021/05/15 06:10:00;;;;;;;4.60;2.53;;;16.20;95.20;;;;;;6302346;28;20550;-61
2021/05/15 06:13:02;;;;;;;2.43;2.13;;;16.00;95.00;;;;;;6301929;28;20484;-61
2021/05/15 06:16:04;;;;;;;2.53;2.20;;;15.90;95.10;;;;;;6302057;28;20568;-61
2021/05/15 06:19:05;;;;;;;1.93;1.50;;;15.90;95.10;;;;;;6302203;28;20528;-61
2021/05/15 06:22:08;;;;;;;1.67;1.57;;;16.10;95.20;;;;;;6297386;28;20771;-61
2021/05/15 06:25:12;;;;;;;2.10;1.90;;;16.40;95.10;;;;;;6302141;28;20472;-61
2021/05/15 06:28:15;;;;;;;2.50;2.07;;;16.70;94.60;;;;;;6301890;28;20489;-62
2021/05/15 06:31:17;;;;;;;3.40;2.40;;;17.00;93.80;;;;;;6301931;28;20465;-61
2021/05/15 06:34:18;;;;;;;2.87;2.50;;;17.20;93.20;;;;;;6301413;28;20496;-62
2021/05/15 06:37:20;;;;;;;2.93;2.23;;;17.40;93.00;;;;;;6301988;28;21022;-62
2021/05/15 06:40:22;;;;;;;2.70;2.50;;;17.50;92.30;;;;;;6300922;28;20854;-61
2021/05/15 06:43:24;;;;;;;2.63;2.43;;;17.40;92.20;;;;;;6301526;28;20489;-61
2021/05/15 06:46:26;;;;;;;2.80;2.53;;;17.40;92.30;;;;;;6301149;28;20473;-62
2021/05/15 06:49:27;;;;;;;2.23;2.03;;;17.50;92.20;;;;;;6301519;28;20536;-61
2021/05/15 06:52:29;;;;;;;2.27;2.17;;;17.50;91.90;;;;;;6301510;28;20512;-61
2021/05/15 06:55:31;;;;;;;2.43;2.17;;;17.70;91.70;;;;;;6300895;28;20542;-62
2021/05/15 06:58:33;;;;;;;2.13;1.93;;;17.70;91.50;;;;;;6301565;28;20465;-61
2021/05/15 07:01:35;;;;;;;4.40;2.07;;;17.70;91.60;;;;;;6300700;28;20481;-61
2021/05/15 07:04:36;;;;;;;4.10;2.30;;;17.50;91.70;;;;;;6301280;28;20493;-61
2021/05/15 07:07:38;;;;;;;3.80;2.43;;;17.50;91.70;;;;;;6300622;28;20472;-61
2021/05/15 07:10:40;;;;;;;3.20;2.80;;;17.30;91.90;;;;;;6300988;28;20559;-61
2021/05/15 07:13:42;;;;;;;2.60;2.40;;;17.30;92.10;;;;;;6300126;28;20476;-61
2021/05/15 07:16:43;;;;;;;2.87;2.63;;;17.20;92.30;;;;;;6300802;28;20965;-61
2021/05/15 07:19:45;;;;;;;4.63;2.80;;;17.10;92.40;;;;;;6300470;28;20481;-61
2021/05/15 07:22:46;;;;;;;2.57;2.17;;;17.00;92.60;;;;;;6300166;28;20461;-62
2021/05/15 07:25:49;;;;;;;2.50;2.30;;;17.10;92.60;;;;;;6300596;28;20563;-61
2021/05/15 07:28:50;;;;;;;2.40;2.03;;;17.00;92.70;;;;;;6290860;28;20968;-61
2021/05/15 07:31:52;;;;;;;2.90;1.87;;;17.00;92.60;;;;;;6300297;28;20472;-61
2021/05/15 07:34:54;;;;;;;2.80;1.53;;;16.90;92.10;;;;;;6300288;28;20551;-61
2021/05/15 07:37:55;;;;;;;5.60;2.40;;;16.90;92.50;;;;;;6300082;28;20545;-62
2021/05/15 07:40:58;;;;;;;2.00;1.90;;;17.00;92.70;;;;;;6299494;28;20511;-60
2021/05/15 07:44:00;;;;;;;2.00;1.90;;;17.20;92.80;;;;;;6299754;28;20491;-60
2021/05/15 07:47:02;;;;;;;4.20;2.47;;;17.40;91.80;;;;;;6288266;28;20479;-60
2021/05/15 07:50:04;;;;;;;1.93;1.83;;;17.70;91.40;;;;;;6297984;28;20473;-61
2021/05/15 07:53:06;;;;;;;2.43;2.23;;;17.80;91.30;;;;;;6298866;28;20483;-62
2021/05/15 07:56:08;;;;;;;1.87;1.77;;;17.70;91.00;;;;;;6276568;28;20542;-62
2021/05/15 07:59:10;;;;;;;1.80;1.70;;;17.70;91.10;;;;;;6292632;28;20544;-62
2021/05/15 08:02:12;;;;;;;2.03;1.83;;;17.80;90.50;;;;;;6296919;28;21074;-63
2021/05/15 08:05:13;;;;;;;2.53;1.60;;;18.00;90.10;;;;;;6274800;28;20563;-68
2021/05/15 08:08:15;;;;;;;2.40;2.00;;;18.10;89.50;;;;;;6274392;28;20492;-69
2021/05/15 08:11:18;;;;;;;1.80;1.70;;;18.20;89.80;;;;;;6274446;28;21031;-67
2021/05/15 08:14:20;;;;;;;2.00;1.87;;;18.20;88.60;;;;;;6273969;28;20539;-66
2021/05/15 08:17:21;;;;;;;3.13;1.77;;;18.30;89.00;;;;;;6274491;28;20568;-69
2021/05/15 08:20:24;;;;;;;2.17;1.97;;;18.70;88.30;;;;;;6274227;28;20461;-68
2021/05/15 08:23:26;;;;;;;2.13;1.93;;;19.50;85.90;;;;;;6274183;28;20466;-69
2021/05/15 08:26:29;;;;;;;3.50;1.87;;;19.90;83.20;;;;;;6274314;28;20861;-69
2021/05/15 08:29:32;;;;;;;2.07;1.73;;;20.00;81.90;;;;;;6273890;28;20273;-69
2021/05/15 08:32:34;;;;;;;1.70;1.60;;;20.20;80.10;;;;;;6278106;28;20231;-69
2021/05/15 08:35:36;;;;;;;2.50;1.83;;;20.70;79.30;;;;;;6298810;28;20682;-68
2021/05/15 08:38:38;;;;;;;2.20;1.90;;;21.20;78.00;;;;;;6299072;28;20695;-68
2021/05/15 08:41:40;;;;;;;2.50;1.60;;;21.70;75.10;;;;;;6298134;28;20254;-70
2021/05/15 08:44:47;;;;;;;2.17;1.87;;;22.40;73.20;;;;;;6299021;28;20283;-70
2021/05/15 08:47:51;;;;;;;2.50;1.47;;;23.10;70.40;;;;;;6279832;28;20255;-71
2021/05/15 08:50:53;;;;;;;1.90;1.50;;;23.60;67.20;;;;;;6274006;28;20265;-65
2021/05/15 08:53:57;;;;;;;1.73;1.63;;;23.40;65.00;;;;;;6280053;28;20311;-65
2021/05/15 08:57:00;;;;;;;1.90;1.40;;;23.00;65.90;;;;;;6298295;28;20234;-66
2021/05/15 09:00:09;;;;;;;2.50;2.20;;;22.50;65.60;;;;;;6298047;28;20250;-65
2021/05/15 09:03:13;;;;;;;1.67;1.57;;;21.90;68.00;;;;;;6300937;28;20557;-61
2021/05/15 09:06:16;;;;;;;2.00;1.90;;;21.80;68.70;;;;;;6303069;28;20234;-61
2021/05/15 09:09:19;;;;;;;2.00;1.50;;;22.00;68.10;;;;;;6299129;28;20229;-64
2021/05/15 09:12:23;;;;;;;1.90;1.70;;;22.40;66.00;;;;;;6299288;28;20682;-65
2021/05/15 09:15:26;;;;;;;2.40;1.53;;;22.40;65.90;;;;;;6313012;28;20219;-60
2021/05/15 09:18:32;;;;;;;2.80;1.87;;;22.10;66.60;;;;;;6302123;28;20316;-61
2021/05/15 09:21:34;;;;;;;2.80;2.33;;;21.70;70.20;;;;;;6299360;28;20226;-61
2021/05/15 09:24:41;;;;;;;1.83;1.50;;;21.50;72.00;;;;;;6301834;28;20227;-65
2021/05/15 09:27:44;;;;;;;1.60;1.50;;;21.50;71.60;;;;;;6302660;28;20667;-62
2021/05/15 09:30:47;;;;;;;2.20;1.37;;;21.70;71.20;;;;;;6301296;28;20550;-61
2021/05/15 09:33:53;;;;;;;1.50;1.27;;;22.00;70.70;;;;;;6296517;28;20286;-60
2021/05/15 09:36:56;;;;;;;1.93;1.40;;;21.90;69.60;;;;;;6301924;28;20187;-60
2021/05/15 09:40:11;;;;;;;1.67;1.40;;;21.70;68.90;;;;;;6302756;28;20227;-60
2021/05/15 09:43:16;;;;;;;1.40;1.30;;;21.90;69.70;;;;;;6302705;28;20227;-60
2021/05/15 09:46:25;;;;;;;1.80;1.57;;;22.20;68.00;;;;;;6299188;28;20675;-61
2021/05/15 09:49:29;;;;;;;1.43;1.30;;;22.40;67.90;;;;;;6277904;28;20223;-61
2021/05/15 09:52:32;;;;;;;1.67;1.43;;;22.50;68.00;;;;;;6277686;28;20237;-61
2021/05/15 09:55:37;;;;;;;2.90;1.57;;;22.60;67.40;;;;;;6300080;28;20226;-60
2021/05/15 09:58:41;;;;;;;3.47;1.70;;;22.80;67.10;;;;;;6320236;28;20222;-64
2021/05/15 10:01:45;;;;;;;1.70;1.60;;;23.50;66.00;;;;;;6322122;28;20569;-64
2021/05/15 10:04:50;;;;;;;4.23;1.50;;;24.10;64.80;;;;;;6325218;28;20233;-65
2021/05/15 10:07:53;;;;;;;3.77;1.40;;;24.20;61.40;;;;;;6327052;28;20238;-65
2021/05/15 10:10:56;;;;;;;1.50;1.40;;;24.10;61.30;;;;;;6327422;28;20245;-66
2021/05/15 10:14:00;;;;;;;1.43;1.20;;;23.80;61.20;;;;;;6325705;28;20715;-68
2021/05/15 10:17:03;;;;;;;2.70;1.50;;;23.60;61.30;;;;;;6327079;28;20250;-68
2021/05/15 10:20:09;;;;;;;1.17;1.07;;;23.20;61.70;;;;;;6326733;28;20230;-62
2021/05/15 10:23:20;;;;;;;1.67;1.57;;;23.10;62.90;;;;;;6327094;28;20226;-60
2021/05/15 10:26:24;;;;;;;1.83;1.33;;;23.10;62.70;;;;;;6304594;28;20632;-62
2021/05/15 10:29:42;;;;;;;1.20;1.00;;;23.00;61.80;;;;;;6325450;28;20676;-61
2021/05/15 10:33:01;;;;;;;2.40;1.50;;;22.80;62.90;;;;;;6311980;28;20227;-62
2021/05/15 10:36:06;;;;;;;1.47;1.23;;;22.40;63.70;;;;;;6276997;28;20235;-62
2021/05/15 10:39:08;;;;;;;2.47;1.50;;;22.10;63.70;;;;;;6276294;28;20576;-61
2021/05/15 10:42:12;;;;;;;2.30;1.30;;;21.80;64.70;;;;;;6272071;28;20223;-61
2021/05/15 10:45:16;;;;;;;1.90;1.23;;;21.60;65.90;;;;;;6275659;28;20231;-61
2021/05/15 10:48:24;;;;;;;1.50;1.40;;;21.40;66.20;;;;;;6276106;28;20238;-61
2021/05/15 10:51:39;;;;;;;1.27;1.17;;;21.20;67.10;;;;;;6275784;28;20246;-61
2021/05/15 10:54:46;;;;;;;1.00;0.90;;;20.80;68.50;;;;;;6289480;28;20231;-63
2021/05/15 10:57:49;;;;;;;1.00;1.00;;;20.50;69.10;;;;;;6300504;28;20234;-61
2021/05/15 11:00:53;;;;;;;0.90;0.90;;;20.60;69.60;;;;;;6314027;28;20238;-62
2021/05/15 11:03:56;;;;;;;1.00;0.80;;;20.80;69.20;;;;;;6325792;28;20202;-61
2021/05/15 11:07:04;;;;;;;2.07;1.00;;;21.00;68.60;;;;;;6326099;28;20226;-62
2021/05/15 11:10:09;;;;;;;1.10;0.90;;;21.50;67.70;;;;;;6325426;28;20359;-62
2021/05/15 11:13:14;;;;;;;1.90;1.00;;;21.90;65.80;;;;;;6325248;28;20225;-66
2021/05/15 11:16:29;;;;;;;0.97;0.87;;;22.30;64.60;;;;;;6318885;28;20551;-65
2021/05/15 11:19:33;;;;;;;1.47;0.90;;;22.60;64.30;;;;;;6300349;28;20687;-66
2021/05/15 11:22:39;;;;;;;0.73;0.70;;;22.80;62.20;;;;;;6299509;28;20810;-65
2021/05/15 11:25:53;;;;;;;0.70;0.70;;;23.10;61.60;;;;;;6321275;28;20547;-65
2021/05/15 11:29:04;;;;;;;0.90;0.80;;;23.20;60.00;;;;;;6325037;28;20240;-64
2021/05/15 11:32:10;;;;;;;1.90;1.10;;;23.20;61.10;;;;;;6321091;28;20305;-65
2021/05/15 11:35:13;;;;;;;0.73;0.73;;;23.40;60.10;;;;;;6274884;28;20227;-70
2021/05/15 11:38:18;;;;;;;2.23;1.03;;;23.00;59.40;;;;;;6275420;28;20238;-71
2021/05/15 11:41:23;;;;;;;1.73;0.90;;;22.80;61.00;;;;;;6274622;28;20907;-73
2021/05/15 11:44:26;;;;;;;1.50;1.20;;;22.70;59.90;;;;;;6265496;28;20314;-65
2021/05/15 11:47:30;;;;;;;1.33;1.10;;;22.10;59.70;;;;;;6274523;28;20246;-64
2021/05/15 11:50:33;;;;;;;0.70;0.70;;;22.20;59.90;;;;;;6274780;28;20232;-67
2021/05/15 11:53:37;;;;;;;0.87;0.80;;;22.40;58.40;;;;;;6278635;28;20221;-63
2021/05/15 11:56:40;;;;;;;1.80;0.83;;;22.30;58.40;;;;;;6298086;28;20233;-65
2021/05/15 11:59:43;;;;;;;2.20;1.10;;;22.50;59.10;;;;;;6299387;28;20238;-69
2021/05/15 12:02:47;;;;;;;1.10;0.97;;;22.30;58.50;;;;;;6298656;28;20555;-67
2021/05/15 12:05:51;;;;;;;1.00;0.90;;;21.70;60.00;;;;;;6299345;28;20258;-63
2021/05/15 12:08:54;;;;;;;0.97;0.90;;;21.80;60.50;;;;;;6299006;28;20617;-67
2021/05/15 12:11:59;;;;;;;1.27;0.80;;;22.00;60.70;;;;;;6298860;28;20310;-71
2021/05/15 12:15:02;;;;;;;1.23;1.07;;;22.00;60.20;;;;;;6298613;28;20234;-65
2021/05/15 12:18:07;;;;;;;1.03;0.90;;;21.90;59.50;;;;;;6299454;28;20223;-67
2021/05/15 12:21:10;;;;;;;1.80;1.00;;;21.50;60.30;;;;;;6298851;28;20422;-65
2021/05/15 12:24:12;;;;;;;0.90;0.67;;;21.20;61.40;;;;;;6298762;28;20235;-66
2021/05/15 12:27:18;;;;;;;1.20;1.10;;;21.00;60.00;;;;;;6298728;28;20231;-66
2021/05/15 12:30:24;;;;;;;1.17;0.90;;;20.80;62.20;;;;;;6298904;28;20242;-65
2021/05/15 12:33:29;;;;;;;1.83;0.80;;;21.20;62.80;;;;;;6298778;28;20234;-66
2021/05/15 12:36:34;;;;;;;0.93;0.80;;;21.50;61.80;;;;;;6298310;28;20301;-64
2021/05/15 12:39:37;;;;;;;1.07;0.80;;;21.50;60.90;;;;;;6298620;28;20245;-63
2021/05/15 12:42:40;;;;;;;0.60;0.60;;;21.60;62.70;;;;;;6298573;28;20230;-66
2021/05/15 12:45:44;;;;;;;1.00;0.60;;;21.70;63.20;;;;;;6298597;28;20233;-65
2021/05/15 12:48:56;;;;;;;1.47;1.00;;;21.70;60.70;;;;;;6275123;28;20242;-65
2021/05/15 12:52:00;;;;;;;1.63;0.90;;;21.50;59.70;;;;;;6273131;28;20223;-64
2021/05/15 12:55:07;;;;;;;2.47;0.77;;;21.00;59.70;;;;;;6288852;28;20245;-65
2021/05/15 12:58:12;;;;;;;1.33;1.20;;;20.80;60.00;;;;;;6298905;28;20222;-63
2021/05/15 13:01:15;;;;;;;1.77;1.20;;;21.10;62.40;;;;;;6321618;28;20230;-70
2021/05/15 13:04:26;;;;;;;0.80;0.77;;;21.30;63.40;;;;;;6323948;28;20583;-69
2021/05/15 13:07:33;;;;;;;1.30;1.00;;;21.60;59.20;;;;;;6323643;28;20223;-68
2021/05/15 13:10:37;;;;;;;1.27;1.13;;;21.90;59.20;;;;;;6323583;28;20311;-66
2021/05/15 13:13:40;;;;;;;1.33;0.90;;;21.60;58.60;;;;;;6321969;28;20236;-67
2021/05/15 13:16:43;;;;;;;0.93;0.83;;;21.60;58.90;;;;;;6323097;28;20232;-63
2021/05/15 13:19:47;;;;;;;1.10;1.00;;;21.60;59.90;;;;;;6322449;28;20823;-63
2021/05/15 13:22:50;;;;;;;1.00;0.90;;;21.40;61.00;;;;;;6325186;28;20233;-71
2021/05/15 13:25:53;;;;;;;1.27;1.00;;;21.10;62.60;;;;;;6323364;28;20218;-67
2021/05/15 13:28:56;;;;;;;1.90;1.17;;;20.80;64.40;;;;;;6323598;28;20317;-70
2021/05/15 13:32:01;;;;;;;1.57;1.13;;;20.50;71.00;;;;;;6320764;28;20231;-65
2021/05/15 13:35:06;;;;;;;1.30;0.97;;;20.40;76.70;;;;;;6273238;28;20235;-65
2021/05/15 13:38:09;;;;;;;1.57;1.20;;;20.20;75.30;;;;;;6273188;28;20228;-64
2021/05/15 13:41:12;;;;;;;1.30;1.10;;;20.40;76.70;;;;;;6272718;28;20679;-64
2021/05/15 13:44:14;;;;;;;1.40;1.03;;;20.60;80.00;;;;;;6297916;28;20226;-64
2021/05/15 13:47:17;;;;;;;3.00;1.17;;;20.80;81.60;;;;;;6286767;28;20239;-64
2021/05/15 13:50:22;;;;;;;1.47;0.90;;;20.90;77.70;;;;;;6311523;28;20233;-67
2021/05/15 13:53:25;;;;;;;0.77;0.70;;;21.20;70.70;;;;;;6315316;28;20674;-60
2021/05/15 13:56:29;;;;;;;1.43;1.33;;;21.40;68.60;;;;;;6302496;28;20238;-62
2021/05/15 13:59:32;;;;;;;2.30;0.97;;;21.70;73.30;;;;;;6301605;28;20234;-62
2021/05/15 14:02:35;;;;;;;1.90;1.13;;;21.70;72.60;;;;;;6302269;28;20683;-62
2021/05/15 14:05:39;;;;;;;1.70;1.17;;;21.40;73.20;;;;;;6302379;28;20551;-68
2021/05/15 14:08:42;;;;;;;2.27;2.00;;;21.30;75.80;;;;;;6302195;28;20599;-66
2021/05/15 14:11:45;;;;;;;1.53;1.00;;;21.40;75.80;;;;;;6302007;28;20231;-62
2021/05/15 14:14:47;;;;;;;2.27;1.00;;;21.50;72.90;;;;;;6301578;28;20234;-62
2021/05/15 14:17:50;;;;;;;0.70;0.70;;;21.60;73.40;;;;;;6301910;28;20559;-62
2021/05/15 14:20:54;;;;;;;1.30;1.00;;;21.90;72.70;;;;;;6306066;28;20662;-63
2021/05/15 14:23:57;;;;;;;2.30;1.20;;;21.90;70.30;;;;;;6326854;28;20229;-69
2021/05/15 14:27:00;;;;;;;1.27;1.17;;;21.60;68.90;;;;;;6326699;28;20697;-68
2021/05/15 14:30:08;;;;;;;1.50;1.40;;;21.40;70.40;;;;;;6326731;28;20226;-66
2021/05/15 14:33:11;;;;;;;1.27;1.10;;;21.40;72.30;;;;;;6304587;28;20556;-69
2021/05/15 14:36:15;;;;;;;2.60;1.37;;;21.30;72.50;;;;;;6276912;28;20242;-66
2021/05/15 14:39:19;;;;;;;1.63;1.30;;;21.20;72.00;;;;;;6301181;28;20231;-60
2021/05/15 14:42:22;;;;;;;1.50;1.00;;;21.00;71.90;;;;;;6301235;28;20230;-65
2021/05/15 14:45:25;;;;;;;1.57;1.20;;;20.90;71.10;;;;;;6300774;28;20231;-65
2021/05/15 14:48:35;;;;;;;1.63;1.10;;;20.80;71.40;;;;;;6289865;28;20218;-64
2021/05/15 14:51:40;;;;;;;1.70;1.17;;;20.90;73.20;;;;;;6302577;28;20292;-63
2021/05/15 14:54:44;;;;;;;1.97;1.40;;;20.90;73.90;;;;;;6301079;28;20233;-62
2021/05/15 14:57:46;;;;;;;1.43;1.33;;;20.70;75.50;;;;;;6296371;28;20222;-64
2021/05/15 15:00:49;;;;;;;2.00;1.80;;;20.60;75.10;;;;;;6304668;28;20222;-63
2021/05/15 15:03:52;;;;;;;1.53;1.30;;;20.00;77.60;;;;;;6324525;28;20657;-63
2021/05/15 15:06:55;;;;;;;1.73;1.00;;;19.40;79.50;;;;;;6323353;28;20213;-63
2021/05/15 15:09:58;;;;;;;2.70;1.03;;;19.10;79.20;;;;;;6323481;28;20222;-63
2021/05/15 15:13:01;;;;;;;1.43;1.27;;;18.70;78.90;;;;;;6299524;28;20249;-63
2021/05/15 15:16:05;;;;;;;1.30;1.20;;;18.50;77.50;;;;;;6298593;28;20459;-62
2021/05/15 15:19:08;;;;;;;2.13;1.60;;;18.30;80.00;;;;;;6298718;28;20465;-62
2021/05/15 15:22:11;;;;;;;1.90;1.20;;;18.10;84.10;;;;;;6300401;28;20461;-62
2021/05/15 15:25:14;;;;;;;1.60;1.50;;;17.70;89.20;;;;;;6300205;28;20457;-62
2021/05/15 15:28:19;;;;;;;1.83;1.73;;;17.50;91.40;;;;;;6300440;28;20490;-63
2021/05/15 15:31:21;;;;;;;1.90;1.37;;;17.40;93.40;;;;;;6299100;28;20484;-62
2021/05/15 15:34:24;;;;;;;3.33;1.77;;;17.40;95.80;;;;;;6299774;28;20964;-62
2021/05/15 15:37:28;;;;;;;2.60;1.50;;;17.30;97.10;;;;;;6299821;28;20476;-63
2021/05/15 15:40:31;;;;;;;1.87;1.40;;;17.30;98.50;;;;;;6299791;28;20855;-62
2021/05/15 15:43:35;;;;;;;3.37;2.37;;;17.40;99.00;;;;;;6299963;28;20477;-62
2021/05/15 15:46:38;;;;;;;2.60;1.90;;;17.40;99.70;;;;;;6293948;28;20462;-63
2021/05/15 15:49:41;;;;;;;1.73;1.63;;;17.50;99.90;;;;;;6274753;28;20473;-62
2021/05/15 15:52:44;;;;;;;2.67;2.33;;;17.80;99.90;;;;;;6274919;28;20462;-65
2021/05/15 15:55:48;;;;;;;3.43;2.27;;;18.40;99.90;;;;;;6296861;28;20472;-66